Time;durP1;ratioP1;P1;durP2;ratioP2;P2;SDS_P1;SDS_P2;PMS_P1;PMS_P2;Temp;Humidity;BMP_temperature;BMP_pressure;BME280_temperature;BME280_humidity;BME280_pressure;Samples;Min_cycle;Max_cycle;Signal;HPM_P1;HPM_P2
2020/12/23 00:02:02;;;;;;;5.15;2.05;;;7.00;99.90;;;;;;5085042;28;20111;-87
2020/12/23 00:04:28;;;;;;;6.75;2.22;;;6.80;99.90;;;;;;5086178;28;20029;-87
2020/12/23 00:06:55;;;;;;;4.80;2.42;;;6.70;99.90;;;;;;5084442;28;20112;-86
2020/12/23 00:09:22;;;;;;;4.20;2.38;;;6.70;99.90;;;;;;5084963;28;20028;-87
2020/12/23 00:11:55;;;;;;;5.43;2.72;;;6.60;99.90;;;;;;5084582;28;20032;-87
2020/12/23 00:14:24;;;;;;;4.18;2.60;;;6.50;99.90;;;;;;5084201;28;20048;-88
2020/12/23 00:16:50;;;;;;;5.60;2.15;;;6.50;99.90;;;;;;5084232;28;20040;-88
2020/12/23 00:19:15;;;;;;;9.20;2.40;;;6.40;99.90;;;;;;5085013;28;20087;-87
2020/12/23 00:21:41;;;;;;;3.72;1.70;;;6.40;99.90;;;;;;5084473;28;20074;-87
2020/12/23 00:24:07;;;;;;;4.47;2.50;;;6.40;99.90;;;;;;5084553;28;20025;-88
2020/12/23 00:26:33;;;;;;;4.45;2.60;;;6.40;99.90;;;;;;5084902;28;20035;-88
2020/12/23 00:28:59;;;;;;;4.05;2.28;;;6.40;99.90;;;;;;5084642;28;20035;-89
2020/12/23 00:31:25;;;;;;;3.38;1.80;;;6.30;99.90;;;;;;5084468;28;20052;-88
2020/12/23 00:33:53;;;;;;;3.35;1.85;;;6.30;99.90;;;;;;5084592;28;20475;-88
2020/12/23 00:36:19;;;;;;;4.55;2.17;;;6.30;99.90;;;;;;5083958;28;20031;-88
2020/12/23 00:38:45;;;;;;;5.95;2.47;;;6.30;99.90;;;;;;5084007;28;20044;-88
2020/12/23 00:41:11;;;;;;;2.70;2.00;;;6.40;99.90;;;;;;5083825;28;20039;-87
2020/12/23 00:43:37;;;;;;;1.92;1.73;;;6.20;99.90;;;;;;5084607;28;20025;-89
2020/12/23 00:46:03;;;;;;;4.25;1.90;;;6.30;99.90;;;;;;5084677;28;20132;-89
2020/12/23 00:48:29;;;;;;;4.07;2.53;;;6.20;99.90;;;;;;5084486;28;20024;-89
2020/12/23 00:50:55;;;;;;;3.97;2.38;;;6.20;99.90;;;;;;5084366;28;20032;-87
2020/12/23 00:53:21;;;;;;;3.05;1.48;;;6.20;99.90;;;;;;5083831;28;20032;-87
2020/12/23 00:55:47;;;;;;;6.18;2.70;;;6.10;99.90;;;;;;5083670;28;20024;-88
2020/12/23 00:58:13;;;;;;;3.78;2.35;;;6.10;99.90;;;;;;5083878;28;20041;-87
2020/12/23 01:00:39;;;;;;;5.40;2.60;;;6.00;99.90;;;;;;5083698;28;20035;-88
2020/12/23 01:03:05;;;;;;;5.85;3.10;;;6.00;99.90;;;;;;5084148;28;20028;-88
2020/12/23 01:05:31;;;;;;;5.60;2.58;;;5.90;99.90;;;;;;5083965;28;20024;-87
2020/12/23 01:07:57;;;;;;;5.90;2.10;;;5.90;99.90;;;;;;5084202;28;20028;-86
2020/12/23 01:10:22;;;;;;;4.53;2.13;;;5.80;99.90;;;;;;5083970;28;20484;-89
2020/12/23 01:12:48;;;;;;;3.65;2.78;;;5.90;99.90;;;;;;5083397;28;20028;-87
2020/12/23 01:15:14;;;;;;;6.22;3.42;;;5.80;99.90;;;;;;5083518;28;20040;-87
2020/12/23 01:17:39;;;;;;;15.95;2.72;;;5.80;99.90;;;;;;5083219;28;20036;-88
2020/12/23 01:20:05;;;;;;;5.20;2.53;;;5.70;99.90;;;;;;5083530;28;20473;-87
2020/12/23 01:22:31;;;;;;;4.75;2.95;;;5.70;99.90;;;;;;5083454;28;20032;-86
2020/12/23 01:24:57;;;;;;;3.30;2.33;;;5.60;99.90;;;;;;5083252;28;20025;-89
2020/12/23 01:27:22;;;;;;;5.60;2.53;;;5.70;99.90;;;;;;5083041;28;20028;-86
2020/12/23 01:29:48;;;;;;;5.80;2.63;;;5.60;99.90;;;;;;5083392;28;20031;-85
2020/12/23 01:32:14;;;;;;;5.75;2.22;;;5.60;99.90;;;;;;5083210;28;20024;-88
2020/12/23 01:34:39;;;;;;;7.45;2.25;;;5.60;99.90;;;;;;5083341;28;20124;-87
2020/12/23 01:37:05;;;;;;;4.40;1.92;;;5.60;99.90;;;;;;5083221;28;20050;-87
2020/12/23 01:39:31;;;;;;;5.25;1.70;;;5.60;99.90;;;;;;5083388;28;20021;-87
2020/12/23 01:41:57;;;;;;;3.65;2.08;;;5.60;99.90;;;;;;5083568;28;20033;-85
2020/12/23 01:44:23;;;;;;;4.15;1.95;;;5.60;99.90;;;;;;5083204;28;20033;-87
2020/12/23 01:46:50;;;;;;;3.17;1.90;;;5.50;99.90;;;;;;5082857;28;20054;-88
2020/12/23 01:49:16;;;;;;;4.70;2.20;;;5.60;99.90;;;;;;5083149;28;20481;-88
2020/12/23 01:51:43;;;;;;;4.18;1.95;;;5.60;99.90;;;;;;5084146;28;20024;-85
2020/12/23 01:54:13;;;;;;;3.00;1.83;;;5.60;99.90;;;;;;5083621;28;20029;-88
2020/12/23 01:56:42;;;;;;;3.85;1.98;;;5.60;99.90;;;;;;5083256;28;20029;-85
2020/12/23 01:59:08;;;;;;;4.40;2.05;;;5.60;99.90;;;;;;5087231;28;20027;-86
2020/12/23 02:01:39;;;;;;;2.95;1.90;;;5.60;99.90;;;;;;5087174;28;20032;-90
2020/12/23 02:04:04;;;;;;;3.42;1.98;;;5.60;99.90;;;;;;5087480;28;20086;-85
2020/12/23 02:06:35;;;;;;;4.32;2.38;;;5.70;99.90;;;;;;5087111;28;20430;-89
2020/12/23 02:09:04;;;;;;;4.50;1.92;;;5.60;99.90;;;;;;5087084;28;20397;-88
2020/12/23 02:11:30;;;;;;;6.82;2.33;;;5.70;99.90;;;;;;5086869;28;20024;-88
2020/12/23 02:13:56;;;;;;;4.72;1.83;;;5.70;99.90;;;;;;5087006;28;20052;-86
2020/12/23 02:16:22;;;;;;;3.35;1.75;;;5.70;99.90;;;;;;5086905;28;20611;-87
2020/12/23 02:18:48;;;;;;;5.05;2.25;;;5.70;99.90;;;;;;5086939;28;20040;-88
2020/12/23 02:21:16;;;;;;;6.57;1.92;;;5.80;99.90;;;;;;5086971;28;20031;-87
2020/12/23 02:23:41;;;;;;;3.75;2.15;;;5.80;99.90;;;;;;5087099;28;20067;-87
2020/12/23 02:26:07;;;;;;;2.20;1.52;;;5.80;99.90;;;;;;5087195;28;20021;-88
2020/12/23 02:28:33;;;;;;;5.22;1.95;;;5.80;99.90;;;;;;5086940;28;20028;-88
2020/12/23 02:31:03;;;;;;;5.65;2.30;;;5.90;99.90;;;;;;5087237;28;20032;-88
2020/12/23 02:33:30;;;;;;;4.10;2.65;;;5.90;99.90;;;;;;5092588;28;20028;-88
2020/12/23 02:35:56;;;;;;;11.60;2.00;;;5.90;99.90;;;;;;5089308;28;20024;-89
2020/12/23 02:38:21;;;;;;;3.53;2.00;;;5.90;99.90;;;;;;5088817;28;20044;-87
2020/12/23 02:40:47;;;;;;;3.25;2.20;;;5.90;99.90;;;;;;5088398;28;20461;-87
2020/12/23 02:43:12;;;;;;;2.90;1.83;;;5.90;99.90;;;;;;5088340;28;20035;-88
2020/12/23 02:45:39;;;;;;;2.35;1.48;;;6.00;99.90;;;;;;5088363;28;20020;-88
2020/12/23 02:48:05;;;;;;;14.73;3.97;;;6.10;99.90;;;;;;5088429;28;20089;-89
2020/12/23 02:50:30;;;;;;;4.03;2.50;;;6.10;99.90;;;;;;5088038;28;20024;-89
2020/12/23 02:52:56;;;;;;;3.40;1.90;;;6.20;99.90;;;;;;5088704;28;20716;-89
2020/12/23 02:55:22;;;;;;;4.15;2.35;;;6.20;99.90;;;;;;5088199;28;20032;-87
2020/12/23 02:57:47;;;;;;;3.97;2.47;;;6.10;99.90;;;;;;5088418;28;20493;-88
2020/12/23 03:00:13;;;;;;;10.50;2.83;;;6.10;99.90;;;;;;5088052;28;20021;-87
2020/12/23 03:02:38;;;;;;;4.93;2.05;;;6.10;99.90;;;;;;5096195;28;20038;-88
2020/12/23 03:05:04;;;;;;;12.00;3.20;;;6.10;99.90;;;;;;5096219;28;20035;-88
2020/12/23 03:07:30;;;;;;;4.80;2.72;;;6.10;99.90;;;;;;5095908;28;20039;-87
2020/12/23 03:09:56;;;;;;;8.00;3.13;;;6.00;99.90;;;;;;5096640;28;20028;-88
2020/12/23 03:12:22;;;;;;;4.20;2.15;;;5.90;99.90;;;;;;5095757;28;20013;-86
2020/12/23 03:14:47;;;;;;;3.58;2.42;;;5.90;99.90;;;;;;5088562;28;20132;-88
2020/12/23 03:17:13;;;;;;;6.45;2.80;;;5.80;99.90;;;;;;5086062;28;20037;-89
2020/12/23 03:19:39;;;;;;;6.05;3.22;;;5.90;99.90;;;;;;5086514;28;20032;-87
2020/12/23 03:22:04;;;;;;;8.25;3.42;;;5.80;99.90;;;;;;5086543;28;20040;-88
2020/12/23 03:24:30;;;;;;;9.27;3.67;;;5.70;99.90;;;;;;5086064;28;20028;-89
2020/12/23 03:26:56;;;;;;;8.05;3.60;;;5.70;99.90;;;;;;5086606;28;20088;-89
2020/12/23 03:29:21;;;;;;;9.07;3.70;;;5.70;99.90;;;;;;5085769;28;20033;-88
2020/12/23 03:31:47;;;;;;;5.50;3.05;;;5.70;99.90;;;;;;5085687;28;20029;-87
2020/12/23 03:34:13;;;;;;;26.13;4.22;;;5.70;99.90;;;;;;5085866;28;20028;-88
2020/12/23 03:36:38;;;;;;;6.93;2.70;;;5.70;99.90;;;;;;5085888;28;20032;-87
2020/12/23 03:39:07;;;;;;;42.45;3.90;;;5.80;99.90;;;;;;5085925;28;20112;-89
2020/12/23 03:41:33;;;;;;;54.60;4.70;;;5.80;99.90;;;;;;5085845;28;20025;-88
2020/12/23 03:43:59;;;;;;;5.65;2.63;;;5.80;99.90;;;;;;5085895;28;20032;-87
2020/12/23 03:46:24;;;;;;;29.95;3.47;;;5.80;99.90;;;;;;5085767;28;20047;-86
2020/12/23 03:48:50;;;;;;;11.13;4.80;;;5.80;99.90;;;;;;5085477;28;20016;-87
2020/12/23 03:51:16;;;;;;;9.13;4.63;;;5.80;99.90;;;;;;5085334;28;20021;-88
2020/12/23 03:53:42;;;;;;;41.28;4.50;;;5.80;99.90;;;;;;5085359;28;20029;-87
2020/12/23 03:56:07;;;;;;;50.83;4.60;;;5.80;99.90;;;;;;5085272;28;20029;-86
2020/12/23 03:58:33;;;;;;;22.55;3.65;;;5.80;99.90;;;;;;5085306;28;20061;-86
2020/12/23 04:00:59;;;;;;;22.92;3.15;;;5.80;99.90;;;;;;5085469;28;20029;-88
2020/12/23 04:03:24;;;;;;;12.93;3.08;;;5.70;99.90;;;;;;5085525;28;20028;-89
2020/12/23 04:05:50;;;;;;;8.65;2.90;;;5.70;99.90;;;;;;5084974;28;20029;-88
2020/12/23 04:08:15;;;;;;;35.63;3.70;;;5.70;99.90;;;;;;5084958;28;20028;-85
2020/12/23 04:10:41;;;;;;;5.60;2.97;;;5.70;99.90;;;;;;5084967;28;20032;-86
2020/12/23 04:13:07;;;;;;;3.72;2.42;;;5.70;99.90;;;;;;5084945;28;20115;-87
2020/12/23 04:15:32;;;;;;;29.50;4.60;;;5.80;99.90;;;;;;5084887;28;20440;-89
2020/12/23 04:17:58;;;;;;;9.55;2.47;;;5.70;99.90;;;;;;5085428;28;20058;-88
2020/12/23 04:20:24;;;;;;;17.65;4.05;;;5.70;99.90;;;;;;5084278;28;20075;-87
2020/12/23 04:22:49;;;;;;;5.28;2.85;;;5.60;99.90;;;;;;5084645;28;20028;-87
2020/12/23 04:25:15;;;;;;;9.13;2.20;;;5.70;99.90;;;;;;5084858;28;20035;-88
2020/12/23 04:27:40;;;;;;;4.97;2.42;;;5.50;99.90;;;;;;5084502;28;20029;-86
2020/12/23 04:30:07;;;;;;;11.98;3.58;;;5.60;99.90;;;;;;5085126;28;20027;-88
2020/12/23 04:32:34;;;;;;;43.22;3.28;;;5.50;99.90;;;;;;5084671;28;20028;-88
2020/12/23 04:35:01;;;;;;;5.80;3.28;;;5.50;99.90;;;;;;5084741;28;20024;-87
2020/12/23 04:37:28;;;;;;;3.15;1.92;;;5.50;99.90;;;;;;5084869;28;20374;-87
2020/12/23 04:39:55;;;;;;;5.20;2.08;;;5.50;99.90;;;;;;5084689;28;20028;-88
2020/12/23 04:42:20;;;;;;;4.78;2.67;;;5.40;99.90;;;;;;5084461;28;20024;-87
2020/12/23 04:44:46;;;;;;;6.80;2.13;;;5.40;99.90;;;;;;5084532;28;20454;-87
2020/12/23 04:47:15;;;;;;;10.30;3.15;;;5.40;99.90;;;;;;5084439;28;20047;-86
2020/12/23 04:49:45;;;;;;;3.83;2.03;;;5.50;99.90;;;;;;5084593;28;20469;-87
2020/12/23 04:52:12;;;;;;;3.13;2.28;;;5.60;99.90;;;;;;5084596;28;20031;-86
2020/12/23 04:54:38;;;;;;;12.50;2.50;;;5.50;99.90;;;;;;5083895;28;20028;-87
2020/12/23 04:57:04;;;;;;;2.70;1.98;;;5.50;99.90;;;;;;5084025;28;20043;-89
2020/12/23 04:59:30;;;;;;;8.10;3.28;;;5.50;99.90;;;;;;5084551;28;20017;-87
2020/12/23 05:02:05;;;;;;;4.63;2.90;;;5.50;99.90;;;;;;5083807;28;20032;-85
2020/12/23 05:04:31;;;;;;;26.80;3.03;;;5.50;99.90;;;;;;5084264;28;20020;-86
2020/12/23 05:07:04;;;;;;;3.75;2.15;;;5.60;99.90;;;;;;5083883;28;20073;-88
2020/12/23 05:09:30;;;;;;;3.15;2.40;;;5.50;99.90;;;;;;5083954;28;20032;-86
2020/12/23 05:11:58;;;;;;;2.60;1.60;;;5.60;99.90;;;;;;5083950;28;20032;-88
2020/12/23 05:14:25;;;;;;;32.33;2.50;;;5.50;99.90;;;;;;5083732;28;20120;-87
2020/12/23 05:16:51;;;;;;;4.72;2.40;;;5.60;99.90;;;;;;5083774;28;20040;-87
2020/12/23 05:19:18;;;;;;;6.75;2.75;;;5.60;99.90;;;;;;5083642;28;20031;-89
2020/12/23 05:21:44;;;;;;;4.05;2.30;;;5.50;99.90;;;;;;5084017;28;20020;-87
2020/12/23 05:24:12;;;;;;;2.80;1.63;;;5.50;99.90;;;;;;5083539;28;20066;-88
2020/12/23 05:26:45;;;;;;;3.78;1.60;;;5.40;99.90;;;;;;5083629;28;20025;-85
2020/12/23 05:29:13;;;;;;;4.15;2.58;;;5.30;99.90;;;;;;5083445;28;20035;-88
2020/12/23 05:31:39;;;;;;;33.67;3.08;;;5.20;99.90;;;;;;5083008;28;20025;-87
2020/12/23 05:34:06;;;;;;;3.72;2.40;;;5.20;99.90;;;;;;5083852;28;20048;-88
2020/12/23 05:36:33;;;;;;;4.32;2.42;;;5.10;99.90;;;;;;5083665;28;20027;-87
2020/12/23 05:38:59;;;;;;;14.75;1.63;;;5.10;99.90;;;;;;5083962;28;20025;-86
2020/12/23 05:41:26;;;;;;;7.95;2.15;;;5.10;99.90;;;;;;5084910;28;20561;-88
2020/12/23 05:43:52;;;;;;;2.88;2.13;;;5.00;99.90;;;;;;5083338;28;20044;-88
2020/12/23 05:46:18;;;;;;;2.40;1.40;;;5.20;99.90;;;;;;5083487;28;20118;-86
2020/12/23 05:48:44;;;;;;;2.22;1.45;;;5.20;99.90;;;;;;5083427;28;20021;-88
2020/12/23 05:51:10;;;;;;;2.03;1.80;;;5.20;99.90;;;;;;5082883;28;20021;-88
2020/12/23 05:53:38;;;;;;;4.38;2.00;;;5.20;99.90;;;;;;5084144;28;20025;-88
2020/12/23 05:56:05;;;;;;;3.50;2.17;;;5.20;99.90;;;;;;5083389;28;20063;-88
2020/12/23 05:58:36;;;;;;;41.88;2.30;;;5.20;99.90;;;;;;5083384;28;20040;-87
2020/12/23 06:01:07;;;;;;;39.33;4.55;;;5.20;99.90;;;;;;5086105;28;20038;-91
2020/12/23 06:03:55;;;;;;;27.73;4.32;;;5.10;99.90;;;;;;5084048;28;20028;-87
2020/12/23 06:06:22;;;;;;;12.02;3.47;;;5.10;99.90;;;;;;5083358;28;20040;-85
2020/12/23 06:08:52;;;;;;;47.72;3.47;;;5.10;99.90;;;;;;5082968;28;20077;-87
2020/12/23 06:11:36;;;;;;;16.42;3.85;;;5.00;99.90;;;;;;5083480;28;20088;-85
2020/12/23 06:14:24;;;;;;;4.57;2.67;;;5.00;99.90;;;;;;5083299;28;20025;-87
2020/12/23 06:16:59;;;;;;;4.97;2.70;;;5.00;99.90;;;;;;5083286;28;20047;-87
2020/12/23 06:19:36;;;;;;;5.70;2.70;;;5.10;99.90;;;;;;5082902;28;20020;-88
2020/12/23 06:22:06;;;;;;;20.80;2.65;;;5.10;99.90;;;;;;5083276;28;20059;-87
2020/12/23 06:24:33;;;;;;;4.20;2.10;;;5.20;99.90;;;;;;5083274;28;20119;-89
2020/12/23 06:27:03;;;;;;;29.48;2.80;;;5.10;99.90;;;;;;5083336;28;20098;-88
2020/12/23 06:29:31;;;;;;;9.73;2.65;;;5.10;99.90;;;;;;5083301;28;20028;-88
2020/12/23 06:31:59;;;;;;;3.97;1.80;;;5.00;99.90;;;;;;5083357;28;20028;-86
2020/12/23 06:34:31;;;;;;;2.15;1.90;;;5.10;99.90;;;;;;5082773;28;20029;-86
2020/12/23 06:36:57;;;;;;;7.03;3.55;;;5.20;99.90;;;;;;5083046;28;20070;-88
2020/12/23 06:39:38;;;;;;;6.65;2.70;;;5.10;99.90;;;;;;5082761;28;20062;-88
2020/12/23 06:42:03;;;;;;;6.45;2.00;;;5.20;99.90;;;;;;5083206;28;20025;-87
2020/12/23 06:44:44;;;;;;;20.23;3.08;;;5.20;99.90;;;;;;5086338;28;20082;-85
2020/12/23 06:47:17;;;;;;;22.55;3.45;;;5.20;99.90;;;;;;5086261;28;20031;-83
2020/12/23 06:49:49;;;;;;;89.20;4.55;;;5.20;99.90;;;;;;5085893;28;20127;-82
2020/12/23 06:54:50;;;;;;;4.43;2.58;;;5.10;99.90;;;;;;5086998;28;20040;-84
2020/12/23 06:57:37;;;;;;;3.90;2.38;;;5.10;99.90;;;;;;5086040;28;20044;-84
2020/12/23 07:00:03;;;;;;;14.55;3.03;;;5.10;99.90;;;;;;5085790;28;20142;-86
2020/12/23 07:02:31;;;;;;;4.10;2.53;;;5.10;99.90;;;;;;5085470;28;20078;-85
2020/12/23 07:04:58;;;;;;;8.35;2.47;;;5.10;99.90;;;;;;5085691;28;20096;-87
2020/12/23 07:07:43;;;;;;;6.00;2.95;;;5.10;99.90;;;;;;5085567;28;20150;-84
2020/12/23 07:10:10;;;;;;;9.02;3.38;;;5.10;99.90;;;;;;5085383;28;20029;-85
2020/12/23 07:12:46;;;;;;;4.60;2.70;;;5.10;99.90;;;;;;5085662;28;20037;-86
2020/12/23 07:15:13;;;;;;;4.55;2.72;;;5.10;99.90;;;;;;5084696;28;20048;-85
2020/12/23 07:17:43;;;;;;;5.18;2.80;;;5.10;99.90;;;;;;5085165;28;20044;-87
2020/12/23 07:20:10;;;;;;;4.53;2.28;;;5.00;99.90;;;;;;5085192;28;20029;-87
2020/12/23 07:22:36;;;;;;;10.05;3.58;;;5.00;99.90;;;;;;5085003;28;20025;-87
2020/12/23 07:25:03;;;;;;;3.83;2.53;;;4.90;99.90;;;;;;5085355;28;20024;-88
2020/12/23 07:27:32;;;;;;;7.10;2.72;;;4.90;99.90;;;;;;5085239;28;20032;-85
2020/12/23 07:30:08;;;;;;;4.93;2.25;;;4.90;99.90;;;;;;5084820;28;20034;-84
2020/12/23 07:32:35;;;;;;;22.10;3.67;;;4.90;99.90;;;;;;5085401;28;20482;-83
2020/12/23 07:35:03;;;;;;;18.38;6.35;;;5.00;99.90;;;;;;5084817;28;20055;-86
2020/12/23 07:37:40;;;;;;;12.73;4.47;;;4.90;99.90;;;;;;5084726;28;20043;-84
2020/12/23 07:40:16;;;;;;;5.55;3.05;;;5.00;99.90;;;;;;5084901;28;20053;-86
2020/12/23 07:42:49;;;;;;;5.82;3.40;;;5.00;99.90;;;;;;5085904;28;20450;-86
2020/12/23 07:45:16;;;;;;;3.08;2.47;;;4.90;99.90;;;;;;5084515;28;20552;-87
2020/12/23 07:47:59;;;;;;;4.80;2.70;;;4.90;99.90;;;;;;5084380;28;20035;-87
2020/12/23 07:50:27;;;;;;;11.95;3.53;;;5.00;99.90;;;;;;5084509;28;20028;-85
2020/12/23 07:52:53;;;;;;;5.90;3.42;;;5.00;99.90;;;;;;5084894;28;20059;-85
2020/12/23 07:55:23;;;;;;;7.05;3.03;;;5.00;99.90;;;;;;5083981;28;20029;-84
2020/12/23 07:57:52;;;;;;;4.38;2.55;;;5.00;99.90;;;;;;5084058;28;20044;-82
2020/12/23 08:00:20;;;;;;;3.97;1.98;;;5.00;99.90;;;;;;5084488;28;20043;-82
2020/12/23 08:02:46;;;;;;;5.32;2.70;;;5.00;99.90;;;;;;5084383;28;20036;-82
2020/12/23 08:05:13;;;;;;;3.67;2.33;;;4.90;99.90;;;;;;5084208;28;20024;-83
2020/12/23 08:07:44;;;;;;;6.07;3.03;;;4.90;99.90;;;;;;5084356;28;20032;-83
2020/12/23 08:10:12;;;;;;;4.10;2.90;;;4.80;99.90;;;;;;5084229;28;20020;-82
2020/12/23 08:12:40;;;;;;;15.00;2.97;;;4.80;99.90;;;;;;5083800;28;20020;-81
2020/12/23 08:15:10;;;;;;;4.55;2.03;;;5.00;99.90;;;;;;5084137;28;20150;-82
2020/12/23 08:17:36;;;;;;;5.85;2.28;;;4.90;99.90;;;;;;5083870;28;20040;-85
2020/12/23 08:20:10;;;;;;;4.75;2.65;;;4.90;99.90;;;;;;5083976;28;20031;-84
2020/12/23 08:22:37;;;;;;;5.40;2.80;;;4.90;99.90;;;;;;5084296;28;20044;-83
2020/12/23 08:25:07;;;;;;;4.80;2.75;;;4.90;99.90;;;;;;5083945;28;20032;-85
2020/12/23 08:27:34;;;;;;;6.68;2.67;;;5.00;99.90;;;;;;5083926;28;20032;-83
2020/12/23 08:30:02;;;;;;;4.57;2.75;;;5.00;99.90;;;;;;5083950;28;20059;-83
2020/12/23 08:32:34;;;;;;;6.05;2.53;;;5.00;99.90;;;;;;5083480;28;20024;-82
2020/12/23 08:35:01;;;;;;;3.03;2.08;;;5.00;99.90;;;;;;5085829;28;20035;-81
2020/12/23 08:37:28;;;;;;;4.72;2.97;;;5.00;99.90;;;;;;5085910;28;20071;-82
2020/12/23 08:39:58;;;;;;;4.35;2.45;;;5.10;99.90;;;;;;5083034;28;20123;-83
2020/12/23 08:42:24;;;;;;;5.50;3.00;;;5.10;99.90;;;;;;5083522;28;20056;-81
2020/12/23 08:44:56;;;;;;;7.78;3.97;;;5.10;99.90;;;;;;5084409;28;20036;-82
2020/12/23 08:47:26;;;;;;;4.15;2.65;;;5.10;99.90;;;;;;5083205;28;20044;-82
2020/12/23 08:49:56;;;;;;;5.28;2.70;;;5.10;99.90;;;;;;5083055;28;20043;-81
2020/12/23 08:52:24;;;;;;;5.13;2.83;;;5.10;99.90;;;;;;5084595;28;20067;-82
2020/12/23 08:54:50;;;;;;;5.40;2.55;;;5.10;99.90;;;;;;5083978;28;20396;-81
2020/12/23 08:57:25;;;;;;;5.65;2.53;;;5.10;99.90;;;;;;5084617;28;20044;-79
2020/12/23 08:59:51;;;;;;;5.35;2.88;;;5.10;99.90;;;;;;5082307;28;20043;-78
2020/12/23 09:02:17;;;;;;;7.18;2.60;;;5.20;99.90;;;;;;5083407;28;20092;-78
2020/12/23 09:04:44;;;;;;;4.00;1.90;;;5.20;99.90;;;;;;5082143;28;20039;-79
2020/12/23 09:07:10;;;;;;;5.93;2.95;;;5.20;99.90;;;;;;5083358;28;20043;-77
2020/12/23 09:09:36;;;;;;;11.82;2.95;;;5.20;99.90;;;;;;5083663;28;20035;-79
2020/12/23 09:12:04;;;;;;;4.63;2.35;;;5.20;99.90;;;;;;5083337;28;20115;-78
2020/12/23 09:14:31;;;;;;;6.82;2.95;;;5.30;99.90;;;;;;5082384;28;20055;-77
2020/12/23 09:17:00;;;;;;;4.30;2.25;;;5.30;99.90;;;;;;5083619;28;20099;-79
2020/12/23 09:20:01;;;;;;;4.20;2.50;;;5.30;99.90;;;;;;5082613;28;20021;-80
2020/12/23 09:22:43;;;;;;;5.38;1.92;;;5.30;99.90;;;;;;5083550;28;20024;-78
2020/12/23 09:25:15;;;;;;;6.30;2.53;;;5.30;99.90;;;;;;5083751;28;20024;-81
2020/12/23 09:27:42;;;;;;;3.25;1.67;;;5.40;99.90;;;;;;5082161;28;20029;-80
2020/12/23 09:30:08;;;;;;;5.78;1.92;;;5.40;99.90;;;;;;5099238;28;20107;-83
2020/12/23 09:32:35;;;;;;;11.73;2.53;;;5.40;99.90;;;;;;5103088;28;20039;-81
2020/12/23 09:35:20;;;;;;;2.92;1.77;;;5.50;99.90;;;;;;5103166;28;20028;-83
2020/12/23 09:37:47;;;;;;;3.33;2.20;;;5.60;99.90;;;;;;5104435;28;20043;-81
2020/12/23 09:40:14;;;;;;;4.05;2.80;;;5.60;99.90;;;;;;5102889;28;20024;-81
2020/12/23 09:42:40;;;;;;;2.70;1.48;;;5.80;99.90;;;;;;5102328;28;20047;-82
2020/12/23 09:45:07;;;;;;;5.38;2.13;;;5.60;99.90;;;;;;5102716;28;20031;-82
2020/12/23 09:47:33;;;;;;;5.28;2.72;;;5.70;99.90;;;;;;5102567;28;20055;-82
2020/12/23 09:50:02;;;;;;;2.33;2.05;;;5.80;99.90;;;;;;5102526;28;20035;-81
2020/12/23 09:52:28;;;;;;;4.22;1.98;;;5.80;99.90;;;;;;5102647;28;20036;-81
2020/12/23 09:54:54;;;;;;;4.30;2.10;;;5.90;99.90;;;;;;5097795;28;20036;-82
2020/12/23 09:57:20;;;;;;;3.70;1.95;;;5.90;99.90;;;;;;5082024;28;20040;-80
2020/12/23 09:59:46;;;;;;;6.15;2.22;;;6.00;99.90;;;;;;5090699;28;20028;-80
2020/12/23 10:02:11;;;;;;;3.20;2.20;;;6.00;99.90;;;;;;5089634;28;20043;-82
2020/12/23 10:04:37;;;;;;;3.55;2.47;;;6.00;99.90;;;;;;5083644;28;20151;-82
2020/12/23 10:07:02;;;;;;;2.38;1.55;;;6.00;99.90;;;;;;5083786;28;20024;-81
2020/12/23 10:09:28;;;;;;;4.20;2.25;;;6.00;99.90;;;;;;5083984;28;20036;-80
2020/12/23 10:11:54;;;;;;;2.78;1.60;;;6.10;99.90;;;;;;5082047;28;20063;-80
2020/12/23 10:14:20;;;;;;;3.70;1.90;;;6.10;99.90;;;;;;5082076;28;20033;-82
2020/12/23 10:16:45;;;;;;;4.28;2.03;;;6.30;99.90;;;;;;5082159;28;20155;-81
2020/12/23 10:19:11;;;;;;;4.43;2.33;;;6.20;99.90;;;;;;5084798;28;20032;-80
2020/12/23 10:21:36;;;;;;;5.00;2.60;;;6.30;99.90;;;;;;5086751;28;20037;-82
2020/12/23 10:24:02;;;;;;;3.50;2.08;;;6.40;99.90;;;;;;5090086;28;20079;-80
2020/12/23 10:26:27;;;;;;;2.67;1.83;;;6.30;99.90;;;;;;5090941;28;20028;-81
2020/12/23 10:28:53;;;;;;;2.65;1.83;;;6.50;99.90;;;;;;5091791;28;20020;-81
2020/12/23 10:31:18;;;;;;;5.30;1.77;;;6.40;99.90;;;;;;5090445;28;20080;-79
2020/12/23 10:33:44;;;;;;;3.60;2.22;;;6.40;99.90;;;;;;5085871;28;20017;-77
2020/12/23 10:36:14;;;;;;;4.82;2.58;;;6.40;99.90;;;;;;5093712;28;20016;-78
2020/12/23 10:38:41;;;;;;;4.30;2.28;;;6.40;99.90;;;;;;5090439;28;20445;-77
2020/12/23 10:41:06;;;;;;;2.65;2.13;;;6.60;99.90;;;;;;5089782;28;20024;-78
2020/12/23 10:43:32;;;;;;;5.05;2.40;;;6.50;99.90;;;;;;5087827;28;20063;-79
2020/12/23 10:45:58;;;;;;;3.25;2.10;;;6.50;99.90;;;;;;5087466;28;20025;-77
2020/12/23 10:48:24;;;;;;;4.10;2.55;;;6.60;99.90;;;;;;5088015;28;20028;-77
2020/12/23 10:50:53;;;;;;;3.22;2.10;;;6.50;99.90;;;;;;5088018;28;20028;-77
2020/12/23 10:53:18;;;;;;;5.35;2.65;;;6.60;99.90;;;;;;5087322;28;20024;-76
2020/12/23 10:55:44;;;;;;;3.40;2.00;;;6.50;99.90;;;;;;5098017;28;20038;-77
2020/12/23 10:58:09;;;;;;;5.15;2.50;;;6.70;99.90;;;;;;5108094;28;20036;-77
2020/12/23 11:00:35;;;;;;;6.25;2.45;;;6.60;99.90;;;;;;5106089;28;20017;-77
2020/12/23 11:03:01;;;;;;;8.07;3.22;;;6.60;99.90;;;;;;5107782;28;20044;-76
2020/12/23 11:05:27;;;;;;;7.18;3.15;;;6.60;99.90;;;;;;5108391;28;20016;-75
2020/12/23 11:07:53;;;;;;;5.78;2.92;;;6.60;99.90;;;;;;5106133;28;20042;-76
2020/12/23 11:10:20;;;;;;;4.47;2.35;;;6.70;99.90;;;;;;5105810;28;20056;-75
2020/12/23 11:12:48;;;;;;;3.63;2.20;;;6.70;99.90;;;;;;5107437;28;20034;-76
2020/12/23 11:15:14;;;;;;;6.75;2.90;;;6.70;99.90;;;;;;5107080;28;20055;-76
2020/12/23 11:17:40;;;;;;;3.70;2.30;;;6.80;99.90;;;;;;5106995;28;20040;-77
2020/12/23 11:20:05;;;;;;;3.30;2.10;;;6.90;99.90;;;;;;5105672;28;20074;-76
2020/12/23 11:22:31;;;;;;;4.35;2.70;;;6.90;99.90;;;;;;5105411;28;20028;-76
2020/12/23 11:24:57;;;;;;;7.25;3.13;;;6.90;99.90;;;;;;5107070;28;20054;-75
2020/12/23 11:27:22;;;;;;;3.63;2.22;;;6.90;99.90;;;;;;5106325;28;20028;-76
2020/12/23 11:29:48;;;;;;;4.43;2.53;;;7.00;99.90;;;;;;5105074;28;20032;-75
2020/12/23 11:32:14;;;;;;;5.03;2.55;;;6.90;99.90;;;;;;5106555;28;20028;-76
2020/12/23 11:34:40;;;;;;;9.05;3.15;;;6.90;99.90;;;;;;5106667;28;20020;-74
2020/12/23 11:37:14;;;;;;;7.45;2.50;;;7.00;99.90;;;;;;5106151;28;20405;-75
2020/12/23 11:39:39;;;;;;;6.82;3.75;;;6.90;99.90;;;;;;5066147;28;20032;-75
2020/12/23 11:42:05;;;;;;;5.68;2.85;;;6.90;99.90;;;;;;5066076;28;20112;-75
2020/12/23 11:44:31;;;;;;;5.53;3.05;;;6.90;99.90;;;;;;5066461;28;20029;-75
2020/12/23 11:46:56;;;;;;;5.68;3.10;;;7.00;99.90;;;;;;5066188;28;20017;-75
2020/12/23 11:49:22;;;;;;;7.63;3.20;;;7.00;99.90;;;;;;5065721;28;20021;-74
2020/12/23 11:51:49;;;;;;;10.05;3.22;;;7.00;99.90;;;;;;5098600;28;20092;-74
2020/12/23 11:54:14;;;;;;;7.13;3.47;;;6.90;99.90;;;;;;5065972;28;20055;-75
2020/12/23 11:56:41;;;;;;;5.60;3.33;;;7.00;99.90;;;;;;5065821;28;20025;-75
2020/12/23 11:59:07;;;;;;;11.82;3.85;;;7.00;99.90;;;;;;5065933;28;20037;-75
2020/12/23 12:01:32;;;;;;;6.20;3.38;;;7.10;99.90;;;;;;5066048;28;20027;-75
2020/12/23 12:03:58;;;;;;;9.15;3.22;;;7.10;99.90;;;;;;5082822;28;20033;-74
2020/12/23 12:06:33;;;;;;;6.75;3.95;;;7.10;99.90;;;;;;5080695;28;20323;-78
2020/12/23 12:09:09;;;;;;;4.82;3.08;;;7.10;99.90;;;;;;5072177;28;20134;-78
2020/12/23 12:11:35;;;;;;;7.45;4.10;;;7.10;99.90;;;;;;5069111;28;20059;-76
2020/12/23 12:14:00;;;;;;;8.23;3.90;;;7.10;99.90;;;;;;5080164;28;20024;-75
2020/12/23 12:16:26;;;;;;;9.10;3.25;;;7.10;99.90;;;;;;5083042;28;20056;-75
2020/12/23 12:18:51;;;;;;;7.68;3.75;;;7.20;99.90;;;;;;5081874;28;20071;-75
2020/12/23 12:21:17;;;;;;;8.43;3.30;;;7.20;99.90;;;;;;5084426;28;20089;-76
2020/12/23 12:23:42;;;;;;;6.85;3.40;;;7.20;99.90;;;;;;5084606;28;20025;-75
2020/12/23 12:26:08;;;;;;;7.30;3.95;;;7.20;99.90;;;;;;5084329;28;20031;-77
2020/12/23 12:28:33;;;;;;;5.70;3.50;;;7.20;99.90;;;;;;5082841;28;20024;-77
2020/12/23 12:30:59;;;;;;;4.60;2.88;;;7.20;99.90;;;;;;5075967;28;20028;-76
2020/12/23 12:33:25;;;;;;;8.70;3.55;;;7.10;99.90;;;;;;5082353;28;20112;-76
2020/12/23 12:35:50;;;;;;;4.95;2.92;;;7.20;99.90;;;;;;5082723;28;20029;-75
2020/12/23 12:38:16;;;;;;;4.68;3.15;;;7.20;99.90;;;;;;5082278;28;20047;-75
2020/12/23 12:40:41;;;;;;;5.25;2.83;;;7.20;99.90;;;;;;5082249;28;20020;-75
2020/12/23 12:43:07;;;;;;;5.68;3.55;;;7.30;99.90;;;;;;5073444;28;20027;-76
2020/12/23 12:45:33;;;;;;;7.03;3.70;;;7.20;99.90;;;;;;5082055;28;20024;-76
2020/12/23 12:47:59;;;;;;;8.05;4.13;;;7.20;99.90;;;;;;5083317;28;20046;-76
2020/12/23 12:50:25;;;;;;;6.75;3.53;;;7.30;99.90;;;;;;5083088;28;20032;-76
2020/12/23 12:52:50;;;;;;;6.68;3.83;;;7.40;99.90;;;;;;5083733;28;20028;-74
2020/12/23 12:55:16;;;;;;;7.43;2.95;;;7.30;99.90;;;;;;5081842;28;20441;-76
2020/12/23 12:57:43;;;;;;;7.78;3.97;;;7.40;99.90;;;;;;5082488;28;20036;-75
2020/12/23 13:00:10;;;;;;;7.53;3.58;;;7.30;99.90;;;;;;5083753;28;20028;-75